Time;durP1;ratioP1;P1;durP2;ratioP2;P2;SDS_P1;SDS_P2;PMS_P1;PMS_P2;Temp;Humidity;BMP_temperature;BMP_pressure;BME280_temperature;BME280_humidity;BME280_pressure;Samples;Min_cycle;Max_cycle;Signal;HPM_P1;HPM_P2
2021/10/02 00:33:29;;;;;;;3.40;3.10;;;;;;;16.16;67.77;95690.03;5112917;28;20253;-82
2021/10/02 00:37:42;;;;;;;3.78;2.85;;;;;;;16.12;67.59;95688.88;5074024;27;20628;-81
2021/10/02 00:45:51;;;;;;;4.03;2.90;;;;;;;16.10;67.96;95688.28;5083043;28;20212;-82
2021/10/02 00:48:31;;;;;;;3.47;3.17;;;;;;;16.12;68.07;95688.09;5111072;28;20600;-82
2021/10/02 00:50:59;;;;;;;4.70;3.15;;;;;;;16.11;67.91;95696.88;5111939;28;20203;-81
2021/10/02 00:53:26;;;;;;;4.15;3.20;;;;;;;16.08;68.32;95692.09;5101851;28;20199;-82
2021/10/02 00:55:53;;;;;;;3.65;3.10;;;;;;;16.11;68.00;95691.69;5111011;28;20239;-81
2021/10/02 00:58:29;;;;;;;3.22;2.80;;;;;;;16.09;67.78;95697.09;5111533;28;20207;-82
2021/10/02 01:01:03;;;;;;;3.25;2.97;;;;;;;16.05;68.12;95692.50;5112167;28;20282;-82
2021/10/02 01:03:44;;;;;;;4.10;2.80;;;;;;;15.99;68.90;95693.31;5110840;28;20215;-81
2021/10/02 01:06:35;;;;;;;3.20;2.70;;;;;;;16.01;68.64;95691.31;5083956;28;20321;-81
2021/10/02 01:09:13;;;;;;;3.35;2.80;;;;;;;15.99;68.38;95686.31;5077178;28;20220;-82
2021/10/02 01:11:53;;;;;;;4.03;2.95;;;;;;;16.03;68.16;95677.13;5077335;28;20223;-81
2021/10/02 01:14:32;;;;;;;3.55;3.10;;;;;;;15.94;68.95;95685.38;5085585;28;20234;-81
2021/10/02 01:17:03;;;;;;;3.75;3.20;;;;;;;15.96;68.89;95688.56;5097166;28;20227;-82
2021/10/02 01:23:15;;;;;;;3.10;2.80;;;;;;;15.92;69.05;95685.59;5097751;28;20207;-81
2021/10/02 01:26:11;;;;;;;3.60;3.30;;;;;;;15.88;69.20;95679.19;5047117;28;20775;-82
2021/10/02 01:28:43;;;;;;;3.30;2.80;;;;;;;15.84;69.28;95678.00;5062523;28;20212;-82
2021/10/02 01:31:20;;;;;;;5.57;2.72;;;;;;;15.86;69.31;95676.00;5092199;28;20197;-82
2021/10/02 01:33:59;;;;;;;3.55;3.08;;;;;;;15.84;69.54;95671.03;5080293;28;20726;-82
2021/10/02 01:36:40;;;;;;;4.20;3.00;;;;;;;15.82;70.19;95678.22;5072072;28;20225;-81
2021/10/02 01:48:02;;;;;;;3.40;3.10;;;;;;;15.93;68.89;95669.00;5079353;28;20735;-82
2021/10/02 01:50:41;;;;;;;2.90;2.70;;;;;;;15.92;68.99;95664.00;5092856;28;20200;-81
2021/10/02 01:53:37;;;;;;;3.67;3.33;;;;;;;15.91;69.48;95665.00;5103772;22;20218;-89
2021/10/02 01:56:16;;;;;;;3.30;3.05;;;;;;;15.92;69.16;95664.81;5006798;28;20226;-87
2021/10/02 01:59:06;;;;;;;3.22;2.92;;;;;;;15.95;69.14;95667.00;5014364;28;20199;-84
2021/10/02 02:01:52;;;;;;;3.40;3.10;;;;;;;15.91;69.15;95658.03;5010804;28;20202;-86
2021/10/02 02:04:36;;;;;;;3.08;2.83;;;;;;;15.85;69.50;95666.63;5023251;28;20693;-87
2021/10/02 02:07:09;;;;;;;3.38;3.08;;;;;;;15.87;69.13;95656.84;5014842;28;20260;-88
2021/10/02 02:09:46;;;;;;;3.20;2.92;;;;;;;15.84;69.08;95655.44;5021722;28;20194;-87
2021/10/02 02:12:34;;;;;;;3.15;2.83;;;;;;;15.87;68.67;95655.03;5034882;28;20218;-86
2021/10/02 02:15:14;;;;;;;3.30;3.00;;;;;;;15.91;68.94;95652.81;5031432;28;20233;-86
2021/10/02 02:17:44;;;;;;;3.28;2.75;;;;;;;15.91;68.64;95654.63;5032659;28;20202;-87
2021/10/02 02:20:13;;;;;;;3.05;2.75;;;;;;;15.89;68.77;95653.03;5035279;28;20202;-87
2021/10/02 02:22:41;;;;;;;3.30;3.00;;;;;;;15.88;68.93;95648.84;5033447;28;20206;-87
2021/10/02 02:25:08;;;;;;;3.20;2.90;;;;;;;15.92;68.62;95654.41;5034470;28;20194;-87
2021/10/02 02:27:38;;;;;;;4.18;3.10;;;;;;;15.85;69.04;95654.44;5033698;28;20289;-87
2021/10/02 02:30:08;;;;;;;3.08;2.88;;;;;;;15.86;68.88;95650.84;5033943;28;20665;-85
2021/10/02 02:32:37;;;;;;;4.22;3.30;;;;;;;15.90;68.57;95653.81;5034518;28;20206;-86
2021/10/02 02:35:10;;;;;;;3.20;2.90;;;;;;;15.91;68.07;95658.03;5033331;28;20253;-87
2021/10/02 02:37:36;;;;;;;3.10;2.80;;;;;;;15.98;68.17;95660.56;5034079;28;20226;-85
2021/10/02 02:40:11;;;;;;;3.47;2.75;;;;;;;16.01;67.84;95660.16;5034513;28;20217;-86
2021/10/02 02:42:42;;;;;;;2.60;2.40;;;;;;;16.00;67.42;95659.34;5034348;28;20894;-87
2021/10/02 02:45:12;;;;;;;3.00;2.80;;;;;;;16.00;67.39;95656.75;5013970;28;20230;-85
2021/10/02 02:47:44;;;;;;;2.70;2.50;;;;;;;16.01;67.45;95666.16;5015966;28;20194;-82
2021/10/02 02:50:20;;;;;;;3.10;2.80;;;;;;;16.01;67.63;95666.16;5033684;28;20206;-87
2021/10/02 02:52:55;;;;;;;3.00;2.80;;;;;;;16.00;67.77;95658.56;5032458;28;20217;-87
2021/10/02 02:55:26;;;;;;;2.58;2.38;;;;;;;15.99;67.57;95660.34;5033129;28;20226;-87
2021/10/02 02:57:57;;;;;;;3.13;2.83;;;;;;;15.88;68.12;95653.22;5033170;28;20624;-86
2021/10/02 03:00:41;;;;;;;2.72;2.53;;;;;;;15.89;67.81;95654.84;5034040;28;20202;-86
2021/10/02 03:03:10;;;;;;;3.58;2.97;;;;;;;15.91;67.96;95652.81;5034287;28;20872;-85
2021/10/02 03:05:44;;;;;;;4.82;2.70;;;;;;;15.94;67.95;95655.00;5032659;28;20584;-86
2021/10/02 03:08:15;;;;;;;3.40;3.00;;;;;;;15.94;67.78;95649.03;5033646;28;20202;-85
2021/10/02 03:10:50;;;;;;;2.78;2.58;;;;;;;15.94;68.03;95655.00;5033074;28;20202;-85
2021/10/02 03:13:31;;;;;;;2.85;2.65;;;;;;;15.80;68.75;95664.66;5033324;28;20837;-86
2021/10/02 03:15:58;;;;;;;2.80;2.60;;;;;;;15.85;68.28;95666.63;5033374;28;20222;-86
2021/10/02 03:18:27;;;;;;;3.20;3.00;;;;;;;15.82;68.12;95667.03;5033545;28;20202;-86
2021/10/02 03:20:57;;;;;;;3.00;2.70;;;;;;;15.80;68.32;95658.66;5034722;28;20202;-87
2021/10/02 03:23:27;;;;;;;3.03;2.70;;;;;;;15.78;68.50;95660.66;5033184;28;20269;-86
2021/10/02 03:25:55;;;;;;;2.92;2.72;;;;;;;15.79;68.23;95664.84;5033827;28;20225;-87
2021/10/02 03:28:22;;;;;;;2.97;2.60;;;;;;;15.75;69.00;95658.50;5024502;28;20213;-86
2021/10/02 03:30:49;;;;;;;2.92;2.42;;;;;;;15.61;69.22;95660.34;5027157;28;20213;-86
2021/10/02 03:33:16;;;;;;;2.83;2.63;;;;;;;15.62;69.15;95656.72;5033031;28;20218;-86
2021/10/02 03:35:42;;;;;;;4.32;2.80;;;;;;;15.64;69.24;95657.31;5032644;28;20229;-86
2021/10/02 03:38:10;;;;;;;3.33;2.70;;;;;;;15.58;69.79;95659.97;5033129;28;20235;-85
2021/10/02 03:40:37;;;;;;;5.07;3.00;;;;;;;15.52;70.02;95657.16;5033177;28;20202;-86
2021/10/02 03:43:03;;;;;;;3.22;2.92;;;;;;;15.49;70.26;95654.97;5031996;28;20584;-86
2021/10/02 03:45:31;;;;;;;2.88;2.67;;;;;;;15.42;70.13;95651.59;5032374;28;20204;-86
2021/10/02 03:47:58;;;;;;;3.08;2.78;;;;;;;15.41;70.15;95656.97;5032788;28;20210;-86
2021/10/02 03:50:26;;;;;;;3.00;2.80;;;;;;;15.42;70.42;95655.97;5033306;28;20202;-86
2021/10/02 03:52:53;;;;;;;4.50;2.97;;;;;;;15.41;69.83;95656.97;5032991;28;20229;-85
2021/10/02 03:55:20;;;;;;;3.10;2.80;;;;;;;15.46;69.77;95652.78;5032697;28;20606;-86
2021/10/02 03:57:47;;;;;;;3.22;2.92;;;;;;;15.46;70.05;95650.19;5031531;28;20209;-86
2021/10/02 04:00:15;;;;;;;3.17;2.88;;;;;;;15.45;69.98;95651.19;5026815;28;20206;-87
2021/10/02 04:02:42;;;;;;;3.20;2.90;;;;;;;15.41;70.02;95654.38;5033435;28;20202;-86
2021/10/02 04:05:10;;;;;;;2.70;2.50;;;;;;;15.39;70.06;95649.44;5032365;28;20206;-85
2021/10/02 04:07:36;;;;;;;3.20;2.90;;;;;;;15.39;70.10;95651.22;5032985;28;20206;-86
2021/10/02 04:10:05;;;;;;;3.40;3.10;;;;;;;15.38;70.63;95647.81;5033046;28;20202;-87
2021/10/02 04:12:35;;;;;;;3.00;2.80;;;;;;;15.40;70.10;95645.78;5033628;28;20213;-86
2021/10/02 04:15:01;;;;;;;3.30;3.00;;;;;;;15.40;70.57;95645.78;5032346;28;20237;-84
2021/10/02 04:17:28;;;;;;;3.10;2.87;;;;;;;15.37;70.53;95650.63;5033128;28;20199;-87
2021/10/02 04:19:54;;;;;;;3.17;2.93;;;;;;;15.38;70.42;95650.41;5032928;28;20210;-86
2021/10/02 04:22:21;;;;;;;2.80;2.60;;;;;;;15.36;70.29;95647.22;5033145;28;20202;-87
2021/10/02 04:24:48;;;;;;;3.00;2.72;;;;;;;15.41;70.42;95649.19;5031805;28;20222;-87
2021/10/02 04:27:15;;;;;;;3.25;2.95;;;;;;;15.45;70.07;95640.00;5033304;28;20609;-87
2021/10/02 04:29:42;;;;;;;3.58;3.28;;;;;;;15.48;69.93;95645.59;5031055;28;20241;-87
2021/10/02 04:32:09;;;;;;;5.60;2.80;;;;;;;15.44;70.32;95643.59;5032385;28;20194;-88
2021/10/02 04:34:36;;;;;;;3.25;3.00;;;;;;;15.49;69.65;95643.78;5029244;28;20709;-87
2021/10/02 04:37:03;;;;;;;2.92;2.72;;;;;;;15.46;69.95;95649.38;5017014;28;20230;-86
2021/10/02 04:39:29;;;;;;;3.53;3.22;;;;;;;15.49;69.50;95649.78;5032622;28;20206;-87
2021/10/02 04:41:56;;;;;;;3.47;3.17;;;;;;;15.45;70.41;95650.38;5035104;28;20209;-86
2021/10/02 04:44:22;;;;;;;3.30;3.00;;;;;;;15.44;70.35;95649.59;5035696;28;20282;-86
2021/10/02 04:46:50;;;;;;;3.30;3.00;;;;;;;15.42;70.59;95648.19;5036301;28;20264;-87
2021/10/02 04:49:17;;;;;;;3.53;3.22;;;;;;;15.44;69.88;95652.19;5036323;28;20818;-87
2021/10/02 04:51:46;;;;;;;2.85;2.65;;;;;;;15.42;70.29;95651.59;5036957;28;20209;-87
2021/10/02 04:54:12;;;;;;;3.70;2.60;;;;;;;15.39;70.29;95648.63;5035732;28;20252;-86
2021/10/02 04:56:39;;;;;;;3.10;2.90;;;;;;;15.42;70.21;95640.41;5036697;28;20218;-85
2021/10/02 04:59:05;;;;;;;5.97;3.22;;;;;;;15.41;69.90;95647.41;5035892;28;20198;-86
2021/10/02 05:01:32;;;;;;;3.38;3.08;;;;;;;15.41;70.34;95650.00;5036281;28;20202;-86
2021/10/02 05:04:01;;;;;;;3.08;2.88;;;;;;;15.41;70.28;95656.97;5034211;28;20225;-85
2021/10/02 05:06:28;;;;;;;3.20;2.90;;;;;;;15.33;70.88;95658.00;5023910;28;20198;-87
2021/10/02 05:08:54;;;;;;;3.30;3.00;;;;;;;15.27;70.83;95655.44;5028402;28;20230;-87
2021/10/02 05:11:22;;;;;;;3.60;3.15;;;;;;;15.26;71.06;95659.03;5036046;28;20824;-86
2021/10/02 05:28:52;;;;;;;7.70;3.50;;;;;;;16.36;69.86;95663.13;4791422;29;20283;-93
2021/10/02 05:31:20;;;;;;;7.63;3.90;;;;;;;16.47;68.17;95660.66;4824582;29;20757;-85
2021/10/02 05:33:47;;;;;;;5.75;3.70;;;;;;;16.55;68.26;95663.00;4899796;29;20312;-87
2021/10/02 05:36:13;;;;;;;4.22;3.10;;;;;;;16.66;68.42;95664.16;5017384;28;20317;-86
2021/10/02 05:38:40;;;;;;;4.40;3.30;;;;;;;16.64;67.57;95663.56;5033735;28;20760;-86
2021/10/02 05:41:07;;;;;;;4.78;3.15;;;;;;;16.66;67.74;95664.16;5034664;28;20281;-86
2021/10/02 05:43:37;;;;;;;5.05;3.90;;;;;;;16.71;67.58;95668.72;5034181;28;20229;-85
2021/10/02 05:46:04;;;;;;;3.85;3.25;;;;;;;16.72;67.50;95668.53;5034109;28;20201;-87
2021/10/02 05:48:31;;;;;;;7.78;3.88;;;;;;;16.67;66.97;95662.34;5035551;28;20206;-86
2021/10/02 05:51:00;;;;;;;4.97;3.92;;;;;;;16.45;67.46;95667.09;5032516;28;20215;-88
2021/10/02 05:53:29;;;;;;;5.07;3.35;;;;;;;16.32;68.16;95661.97;5034825;28;20265;-88
2021/10/02 05:55:56;;;;;;;4.53;3.70;;;;;;;16.40;68.43;95669.50;5034743;28;20229;-86
2021/10/02 05:58:22;;;;;;;4.18;3.17;;;;;;;16.56;67.82;95674.19;5035074;28;20585;-86
2021/10/02 06:00:52;;;;;;;3.65;3.35;;;;;;;16.66;67.50;95674.56;5035783;28;20209;-88
2021/10/02 06:03:18;;;;;;;5.57;3.38;;;;;;;16.79;67.10;95671.84;5035019;28;20709;-86
2021/10/02 06:05:48;;;;;;;4.40;3.13;;;;;;;16.83;66.90;95674.81;5034902;28;20208;-85
2021/10/02 06:08:15;;;;;;;3.42;3.13;;;;;;;16.90;66.57;95678.97;5032234;28;20240;-85
2021/10/02 06:10:47;;;;;;;3.55;3.25;;;;;;;17.04;66.37;95681.44;5031549;28;20198;-86
2021/10/02 06:15:58;;;;;;;3.70;3.40;;;;;;;17.06;65.00;95682.03;5146112;23;20235;-83
2021/10/02 06:18:25;;;;;;;3.92;3.00;;;;;;;16.99;65.03;95676.88;4992558;28;20207;-83
2021/10/02 06:20:53;;;;;;;3.50;3.08;;;;;;;16.97;65.15;95672.91;4993819;28;20215;-84
2021/10/02 06:23:20;;;;;;;4.70;2.88;;;;;;;16.92;65.63;95676.94;4995358;28;20637;-83
2021/10/02 06:25:46;;;;;;;6.35;3.38;;;;;;;16.86;65.62;95679.59;4994501;28;20207;-83
2021/10/02 06:28:13;;;;;;;3.38;3.10;;;;;;;16.94;65.61;95684.50;4994259;28;20251;-82
2021/10/02 06:30:39;;;;;;;4.85;3.40;;;;;;;16.89;65.54;95686.97;4995088;28;20290;-83
2021/10/02 06:33:06;;;;;;;3.88;3.10;;;;;;;16.95;65.60;95695.72;4994586;28;20274;-85
2021/10/02 06:35:32;;;;;;;4.95;3.20;;;;;;;16.90;65.93;95686.78;4991994;28;20212;-83
2021/10/02 06:38:00;;;;;;;3.95;3.45;;;;;;;16.82;65.93;95688.81;4992239;28;20223;-83
2021/10/02 06:40:27;;;;;;;3.45;3.15;;;;;;;16.81;65.88;95690.63;4993819;28;20218;-83
2021/10/02 06:42:54;;;;;;;4.55;3.78;;;;;;;16.76;66.08;95692.28;4992450;28;20655;-84
2021/10/02 06:45:20;;;;;;;4.13;2.90;;;;;;;16.71;66.43;95687.72;4992370;28;20298;-84
2021/10/02 06:47:47;;;;;;;3.35;3.05;;;;;;;16.67;66.05;95686.56;4994364;28;20260;-81
2021/10/02 06:50:13;;;;;;;14.57;13.00;;;;;;;16.69;65.93;95694.94;4994766;28;20199;-85
2021/10/02 06:52:40;;;;;;;6.13;4.47;;;;;;;16.65;66.15;95683.38;4993016;28;20209;-84
2021/10/02 06:55:08;;;;;;;3.38;3.10;;;;;;;16.58;66.30;95679.97;4995355;28;20202;-82
2021/10/02 06:57:35;;;;;;;3.20;2.90;;;;;;;16.56;66.40;95684.59;4993538;28;20684;-83
2021/10/02 07:00:02;;;;;;;7.15;3.22;;;;;;;16.55;65.91;95691.59;4990332;28;20222;-84
2021/10/02 07:02:28;;;;;;;3.72;3.20;;;;;;;16.60;66.25;95693.56;4988590;28;20200;-84
2021/10/02 07:04:54;;;;;;;3.35;3.05;;;;;;;16.66;66.09;95689.38;4991761;28;20423;-82
2021/10/02 07:07:21;;;;;;;5.93;4.47;;;;;;;16.73;66.25;95683.13;4993653;28;20196;-81
2021/10/02 07:09:47;;;;;;;4.57;3.10;;;;;;;16.84;66.01;95684.22;4993619;28;20211;-83
2021/10/02 07:12:15;;;;;;;4.88;3.90;;;;;;;16.89;65.90;95695.59;4993780;28;20204;-83
2021/10/02 07:14:43;;;;;;;26.33;22.08;;;;;;;17.03;65.97;95703.25;4991188;28;20239;-83
2021/10/02 07:17:13;;;;;;;3.72;3.20;;;;;;;17.16;65.47;95703.94;4990964;28;20230;-83
2021/10/02 07:19:39;;;;;;;3.60;3.00;;;;;;;17.23;65.28;95702.06;4990980;28;20207;-84
2021/10/02 07:22:06;;;;;;;7.10;3.15;;;;;;;17.17;65.97;95697.72;4991548;28;20203;-86
2021/10/02 07:24:33;;;;;;;3.38;3.08;;;;;;;17.15;65.07;95693.75;4990251;28;20230;-84
2021/10/02 07:27:00;;;;;;;3.75;3.17;;;;;;;17.07;65.77;95689.63;4991295;28;20261;-84
2021/10/02 07:29:28;;;;;;;3.53;3.08;;;;;;;17.11;65.40;95687.41;4991672;28;20254;-84
2021/10/02 07:31:54;;;;;;;5.22;3.20;;;;;;;17.16;65.75;95693.53;4990665;28;20717;-83
2021/10/02 07:34:24;;;;;;;3.25;2.95;;;;;;;17.27;65.58;95690.22;4990313;28;20219;-83
2021/10/02 07:36:50;;;;;;;3.30;3.00;;;;;;;17.37;64.93;95689.72;4970489;28;20242;-82
2021/10/02 07:39:17;;;;;;;4.30;3.20;;;;;;;17.66;64.23;95682.25;4979589;28;20204;-84
2021/10/02 07:41:46;;;;;;;3.78;3.25;;;;;;;18.29;62.98;95677.41;4990362;28;20231;-83
2021/10/02 07:44:13;;;;;;;7.78;7.03;;;;;;;18.90;61.88;95673.72;4990412;28;20254;-84
2021/10/02 07:46:48;;;;;;;4.80;4.05;;;;;;;19.40;60.05;95678.47;4991116;28;20215;-88
2021/10/02 07:49:16;;;;;;;3.53;3.22;;;;;;;19.97;58.87;95682.00;4992339;28;20241;-82
2021/10/02 07:51:44;;;;;;;3.33;3.03;;;;;;;20.33;57.74;95668.56;4992162;28;20306;-84
2021/10/02 07:54:11;;;;;;;3.40;2.95;;;;;;;20.72;57.29;95673.94;4988831;28;20223;-81
2021/10/02 07:56:39;;;;;;;4.15;3.50;;;;;;;21.10;55.73;95675.03;4991119;28;20238;-81
2021/10/02 07:59:06;;;;;;;5.43;3.22;;;;;;;21.29;55.01;95676.38;4991822;28;20218;-83
2021/10/02 08:01:36;;;;;;;5.05;3.60;;;;;;;21.63;54.68;95677.09;4990821;28;20253;-86
2021/10/02 08:04:05;;;;;;;4.75;3.30;;;;;;;21.82;53.10;95672.34;4990673;28;20279;-85
2021/10/02 08:06:33;;;;;;;4.15;3.40;;;;;;;22.11;53.10;95667.72;4991271;28;21097;-86
2021/10/02 08:09:02;;;;;;;5.13;3.40;;;;;;;22.37;52.33;95675.59;4991952;28;20202;-85
2021/10/02 08:11:29;;;;;;;5.18;3.50;;;;;;;22.56;52.07;95675.22;4991093;28;20614;-85
2021/10/02 08:13:56;;;;;;;4.35;3.28;;;;;;;22.74;51.86;95665.13;4989775;28;20234;-85
2021/10/02 08:16:28;;;;;;;3.75;3.45;;;;;;;22.95;51.58;95667.94;4993319;28;20231;-84
2021/10/02 08:19:00;;;;;;;3.97;3.58;;;;;;;23.08;51.40;95663.09;4996292;28;20207;-85
2021/10/02 08:21:29;;;;;;;4.13;3.72;;;;;;;23.18;51.26;95672.84;4995500;28;20229;-84
2021/10/02 08:23:57;;;;;;;3.75;3.45;;;;;;;23.22;50.46;95671.31;4995476;28;20603;-82
2021/10/02 08:26:27;;;;;;;4.10;3.80;;;;;;;23.42;50.37;95663.53;4995199;28;20207;-86
2021/10/02 08:28:54;;;;;;;5.78;4.25;;;;;;;23.67;50.61;95662.09;4999835;28;20233;-86
2021/10/02 08:31:25;;;;;;;4.75;4.35;;;;;;;23.62;50.54;95657.63;4999659;28;20226;-84
2021/10/02 08:33:53;;;;;;;4.68;4.30;;;;;;;23.65;49.49;95656.31;4998681;28;20228;-84
2021/10/02 08:36:25;;;;;;;4.00;3.70;;;;;;;23.81;49.06;95655.31;4995570;28;20567;-89
2021/10/02 08:38:54;;;;;;;4.32;3.88;;;;;;;23.96;48.68;95657.22;4986555;28;20224;-84
2021/10/02 08:41:25;;;;;;;5.88;3.75;;;;;;;23.85;48.58;95645.09;4977784;28;20208;-85
2021/10/02 08:43:54;;;;;;;4.40;4.00;;;;;;;23.93;48.29;95650.63;4977504;28;20220;-85
2021/10/02 08:46:21;;;;;;;4.57;4.18;;;;;;;23.97;48.25;95645.63;4978305;28;20283;-87
2021/10/02 08:48:56;;;;;;;4.10;3.75;;;;;;;24.03;48.13;95647.25;4978304;28;20232;-85
2021/10/02 08:51:23;;;;;;;4.50;4.15;;;;;;;24.26;48.65;95638.88;4976916;28;20813;-85
2021/10/02 08:53:55;;;;;;;4.78;4.38;;;;;;;24.30;46.63;95632.03;4977551;28;20262;-86
2021/10/02 08:56:22;;;;;;;4.18;3.88;;;;;;;24.43;46.43;95631.56;4984014;28;20278;-86
2021/10/02 08:58:49;;;;;;;3.95;3.55;;;;;;;24.44;45.47;95617.31;4996416;28;20208;-85
2021/10/02 09:01:16;;;;;;;4.22;3.80;;;;;;;24.60;45.83;95628.66;4996613;28;20214;-86
2021/10/02 09:03:42;;;;;;;5.45;3.80;;;;;;;24.63;46.29;95624.72;4996380;28;20227;-84
2021/10/02 09:06:09;;;;;;;4.40;4.00;;;;;;;24.51;44.71;95627.59;4997136;28;20552;-86
2021/10/02 09:08:35;;;;;;;3.85;3.42;;;;;;;24.55;45.85;95617.31;4995878;28;20211;-84
2021/10/02 09:11:03;;;;;;;4.20;3.80;;;;;;;24.69;46.16;95616.53;4995763;28;20204;-86
2021/10/02 09:13:30;;;;;;;6.07;4.13;;;;;;;24.62;45.52;95616.03;4994890;28;20215;-85
2021/10/02 09:16:00;;;;;;;3.65;3.35;;;;;;;24.75;46.02;95627.84;4995476;28;20748;-87
2021/10/02 09:18:27;;;;;;;4.15;3.85;;;;;;;24.85;45.87;95622.56;4995478;28;20228;-84
2021/10/02 09:21:03;;;;;;;5.15;3.90;;;;;;;24.75;46.01;95618.13;4995824;28;20203;-86
2021/10/02 09:23:33;;;;;;;4.10;3.72;;;;;;;24.73;44.82;95616.78;4995457;28;20251;-84
2021/10/02 09:26:02;;;;;;;3.55;3.25;;;;;;;24.60;44.05;95607.59;4996317;28;20214;-86
2021/10/02 09:28:39;;;;;;;3.95;3.60;;;;;;;24.49;44.03;95600.72;4996228;28;20196;-87
2021/10/02 09:31:06;;;;;;;3.80;3.50;;;;;;;24.40;45.53;95607.59;4996276;28;20227;-85
2021/10/02 09:33:33;;;;;;;3.20;3.00;;;;;;;24.29;42.84;95608.63;4996067;28;20226;-86
2021/10/02 09:36:00;;;;;;;3.45;3.17;;;;;;;24.27;42.45;95605.47;4992627;28;20214;-86
2021/10/02 09:38:33;;;;;;;2.95;2.75;;;;;;;24.27;43.14;95597.56;4991182;28;20782;-86
2021/10/02 09:41:04;;;;;;;3.13;2.88;;;;;;;24.23;42.67;95599.13;4991756;28;20207;-86
2021/10/02 09:43:34;;;;;;;6.30;5.70;;;;;;;24.29;42.91;95604.16;4991712;28;20286;-86
2021/10/02 09:46:04;;;;;;;4.03;2.80;;;;;;;24.21;42.58;95602.03;4991255;28;20578;-86
2021/10/02 09:48:35;;;;;;;3.03;2.67;;;;;;;24.19;42.34;95604.13;4992036;28;20203;-86
2021/10/02 09:51:08;;;;;;;3.10;2.90;;;;;;;24.18;43.08;95610.44;4991257;28;20250;-87
2021/10/02 09:53:39;;;;;;;2.90;2.70;;;;;;;23.89;43.51;95606.69;4991452;28;20231;-86
2021/10/02 09:56:13;;;;;;;4.22;3.38;;;;;;;23.69;43.74;95595.06;4991153;28;20195;-86
2021/10/02 09:58:40;;;;;;;4.32;2.67;;;;;;;23.66;43.95;95600.06;4991366;28;20289;-88
2021/10/02 10:01:26;;;;;;;3.35;2.90;;;;;;;23.63;42.91;95588.22;4991735;28;20201;-88
2021/10/02 10:03:54;;;;;;;2.88;2.67;;;;;;;23.60;43.79;95601.09;4990017;28;20314;-88
2021/10/02 10:06:25;;;;;;;3.03;2.83;;;;;;;23.57;44.30;95586.59;4990386;28;20195;-88
2021/10/02 10:09:12;;;;;;;3.53;3.22;;;;;;;23.58;45.05;95587.41;4991800;28;20227;-89
2021/10/02 10:11:46;;;;;;;5.63;3.08;;;;;;;23.65;45.31;95594.00;4991531;28;20207;-89
2021/10/02 10:14:20;;;;;;;4.90;4.50;;;;;;;23.66;45.21;95597.44;4992962;28;20245;-86
2021/10/02 10:17:42;;;;;;;5.75;3.03;;;;;;;23.59;44.39;95595.03;4991603;28;20747;-87
2021/10/02 10:26:27;;;;;;;3.85;2.83;;;;;;;23.51;45.37;95584.97;4992405;28;20299;-86
2021/10/02 10:28:53;;;;;;;2.55;2.35;;;;;;;23.51;44.32;95582.34;4995027;28;20646;-86
2021/10/02 10:31:29;;;;;;;2.72;2.53;;;;;;;23.43;44.81;95575.75;4993475;28;20292;-86
2021/10/02 10:33:58;;;;;;;3.05;2.85;;;;;;;23.40;45.26;95573.66;4990217;28;20224;-87
2021/10/02 10:36:27;;;;;;;3.65;2.90;;;;;;;23.46;45.12;95571.84;4993850;28;20578;-86
2021/10/02 10:38:54;;;;;;;3.35;3.00;;;;;;;23.52;45.03;95568.19;4992838;28;20234;-85
2021/10/02 10:41:22;;;;;;;2.90;2.70;;;;;;;23.52;43.78;95565.56;4989103;28;20199;-85
2021/10/02 10:43:50;;;;;;;3.10;2.70;;;;;;;23.49;43.97;95566.03;4993349;28;20235;-85
2021/10/02 10:46:22;;;;;;;2.63;2.45;;;;;;;23.54;44.54;95563.47;4991967;28;20203;-84
2021/10/02 10:48:49;;;;;;;2.50;2.30;;;;;;;23.44;43.47;95558.16;4992857;28;20223;-86
2021/10/02 10:51:19;;;;;;;2.60;2.40;;;;;;;23.45;42.81;95551.06;4973533;28;20668;-85
2021/10/02 10:53:48;;;;;;;2.60;2.40;;;;;;;23.43;43.79;95553.94;4973170;28;20994;-84
2021/10/02 10:56:16;;;;;;;2.53;2.30;;;;;;;23.42;43.52;95547.09;4992009;28;20204;-84
2021/10/02 10:58:43;;;;;;;3.25;2.30;;;;;;;23.44;43.24;95542.38;4992251;28;20250;-84
2021/10/02 11:01:11;;;;;;;2.83;2.55;;;;;;;23.34;42.45;95548.38;4993799;28;20686;-86
2021/10/02 11:03:40;;;;;;;2.58;2.10;;;;;;;23.27;41.91;95542.59;4993970;28;20230;-84
2021/10/02 11:06:09;;;;;;;2.17;2.05;;;;;;;23.22;41.93;95539.94;4992497;28;20429;-85
2021/10/02 11:09:03;;;;;;;2.22;2.03;;;;;;;23.23;41.61;95535.47;4993508;28;20275;-84
2021/10/02 11:11:59;;;;;;;2.50;2.30;;;;;;;23.18;41.60;95524.94;4993280;28;20199;-85
2021/10/02 11:15:00;;;;;;;2.40;2.20;;;;;;;23.19;41.38;95526.53;4992268;28;20223;-85
2021/10/02 11:17:55;;;;;;;2.33;2.13;;;;;;;23.19;41.84;95518.63;4992317;28;20277;-86
2021/10/02 11:20:40;;;;;;;2.40;2.20;;;;;;;23.24;41.63;95514.19;4993560;28;20203;-84
2021/10/02 11:23:45;;;;;;;2.55;2.35;;;;;;;23.19;42.15;95516.81;4993914;28;20310;-85
2021/10/02 11:26:22;;;;;;;2.60;2.40;;;;;;;23.16;42.36;95511.28;4991784;28;20203;-86
2021/10/02 11:28:52;;;;;;;2.83;2.38;;;;;;;23.24;43.08;95508.16;4993739;28;20634;-85
2021/10/02 11:31:49;;;;;;;2.30;2.20;;;;;;;23.26;42.61;95498.97;4998620;28;20271;-86
2021/10/02 11:34:24;;;;;;;2.88;2.63;;;;;;;23.26;43.01;95492.94;4993109;28;20231;-85
2021/10/02 11:36:56;;;;;;;2.15;2.05;;;;;;;23.26;42.47;95490.31;4994914;28;20820;-85
2021/10/02 11:39:31;;;;;;;2.72;2.50;;;;;;;23.36;42.46;95491.09;4983927;28;20199;-86
2021/10/02 11:42:10;;;;;;;4.05;2.42;;;;;;;23.37;43.04;95490.06;4995518;28;20774;-86
2021/10/02 11:44:45;;;;;;;2.75;2.45;;;;;;;23.34;42.17;95482.69;4994955;28;20298;-86
2021/10/02 11:47:35;;;;;;;2.45;2.25;;;;;;;23.35;42.44;95473.75;4994638;28;20301;-85
2021/10/02 11:50:29;;;;;;;3.35;2.40;;;;;;;23.40;43.38;95475.63;4994618;28;20199;-85
2021/10/02 11:53:26;;;;;;;2.70;2.50;;;;;;;23.26;41.66;95462.19;4993747;28;20238;-84
2021/10/02 11:55:52;;;;;;;2.67;2.47;;;;;;;23.20;41.29;95467.69;4933860;29;20215;-86
2021/10/02 11:58:21;;;;;;;5.45;2.83;;;;;;;23.26;42.14;95461.41;4979567;28;20250;-86
2021/10/02 12:00:54;;;;;;;2.70;2.50;;;;;;;23.38;41.91;95461.94;4994805;28;20207;-83
2021/10/02 12:03:24;;;;;;;2.70;2.47;;;;;;;23.30;40.84;95470.31;4993666;28;20227;-83
2021/10/02 12:05:54;;;;;;;4.55;2.80;;;;;;;23.45;41.48;95448.56;4993151;28;20693;-86
2021/10/02 12:08:21;;;;;;;2.30;2.10;;;;;;;23.56;39.74;95450.97;4995159;28;20531;-86
2021/10/02 12:10:56;;;;;;;3.13;2.13;;;;;;;23.64;39.87;95455.72;4993340;28;20208;-84
2021/10/02 12:13:26;;;;;;;2.58;2.38;;;;;;;23.64;39.07;95445.22;4993164;28;20687;-84
2021/10/02 12:15:59;;;;;;;2.30;2.10;;;;;;;23.69;39.15;95445.19;4990962;28;20575;-81
2021/10/02 12:18:39;;;;;;;2.47;2.28;;;;;;;23.81;39.36;95439.69;4993663;28;20227;-83
2021/10/02 12:21:05;;;;;;;2.55;2.35;;;;;;;23.98;39.21;95428.91;4993950;28;20222;-83
2021/10/02 12:23:32;;;;;;;2.33;2.15;;;;;;;24.00;38.52;95434.69;4993305;28;20274;-83
2021/10/02 12:26:02;;;;;;;2.90;2.40;;;;;;;24.07;37.94;95429.94;4992767;28;20207;-83
2021/10/02 12:28:30;;;;;;;6.65;2.53;;;;;;;24.20;40.04;95426.78;4993757;28;20210;-79
2021/10/02 12:30:56;;;;;;;3.72;2.42;;;;;;;24.23;39.74;95420.97;4993352;28;20702;-80
2021/10/02 12:33:23;;;;;;;2.20;2.03;;;;;;;24.09;38.60;95418.09;4993603;28;20219;-81
2021/10/02 12:35:49;;;;;;;2.45;2.30;;;;;;;24.04;39.01;95418.13;4991926;28;20238;-80
2021/10/02 12:38:16;;;;;;;2.50;2.30;;;;;;;24.10;39.75;95414.41;4992578;28;20219;-79
2021/10/02 12:40:52;;;;;;;2.92;2.63;;;;;;;24.09;40.12;95407.56;4992600;28;20208;-82
2021/10/02 12:43:19;;;;;;;3.55;2.58;;;;;;;24.10;40.03;95403.09;4992461;28;20227;-84
2021/10/02 12:45:47;;;;;;;3.05;2.80;;;;;;;23.90;38.54;95408.38;4994921;28;20208;-83
2021/10/02 12:48:14;;;;;;;3.78;2.90;;;;;;;23.92;38.89;95406.28;4993532;28;20207;-86
2021/10/02 12:50:43;;;;;;;3.08;2.53;;;;;;;24.00;39.74;95403.13;4993016;28;20212;-81
2021/10/02 12:53:12;;;;;;;3.80;2.90;;;;;;;24.11;38.82;95392.31;4991564;28;20235;-81
2021/10/02 12:55:38;;;;;;;2.90;2.70;;;;;;;24.14;39.11;95388.38;4991796;28;20214;-81
2021/10/02 12:58:14;;;;;;;3.30;2.85;;;;;;;24.17;39.02;95381.78;4993176;28;20223;-84
2021/10/02 13:00:40;;;;;;;3.15;2.85;;;;;;;24.13;39.29;95378.91;4993121;28;20234;-82
2021/10/02 13:03:09;;;;;;;3.35;2.70;;;;;;;24.28;39.73;95378.09;4996211;28;20223;-86
2021/10/02 13:05:37;;;;;;;3.40;3.10;;;;;;;24.27;39.95;95371.25;4995097;28;20207;-86
2021/10/02 13:08:06;;;;;;;3.20;2.90;;;;;;;24.28;40.67;95370.19;4995638;28;20210;-87